Latest Coastal Weather Observations for Geelong Racecourse

IDV60701

Issued at 6:02 pm EST Sunday 23 April 2017 (issued every 10 minutes, with the page automatically refreshed every 10 minutes)

About coastal observations | Map of coastal stations | Coastal observations for VIC | Marine services | Other Formats
Station Details ID: 087184 Name: GEELONG RACECOURSE Lat: -38.17 Lon: 144.38 Height: 12.9 m
Data from the previous 72 hours. | See also: Recent months at Geelong Racecourse
Date/Time
EST
Temp
°C
Wind Pressure Rain since
9am
mm
Weather Cloud Vis
km
Sea
Height
m
Swell
Dir  Spd
kts
Gust
kts
hPa Trend Height
m
Period
s
Dir
23/06:00pm 16.6 SSW 9 13 1023.0 - 0.0 - - - - - - -
23/05:30pm 16.8 SSW 10 13 1022.8 - 0.0 - - - - - - -
23/05:00pm 17.1 SSW 10 13 1022.8 - 0.0 - - - - - - -
23/04:30pm 17.3 SSW 10 13 1022.7 - 0.0 - - - - - - -
23/04:00pm 17.9 SSW 10 13 1022.6 - 0.0 - - - - - - -
23/03:30pm 18.8 SSW 10 13 1022.4 - 0.0 - - - - - - -
23/03:00pm 19.3 S 8 11 1022.3 - 0.0 - - - - - - -
23/02:30pm 19.3 SSW 7 9 1022.3 - 0.0 - - - - - - -
23/02:00pm 19.1 S 7 9 1022.5 - 0.0 - - - - - - -
23/01:30pm 18.9 SSW 7 9 1022.7 - 0.0 - - - - - - -
23/01:00pm 19.0 S 7 10 1022.9 - 0.0 - - - - - - -
23/12:30pm 19.6 S 4 5 1023.2 - 0.0 - - - - - - -
23/12:00pm 19.6 W 4 5 1023.6 - 0.0 - - - - - - -
23/11:30am 21.6 NNW 2 5 1023.9 - 0.0 - - - - - - -
23/11:00am 20.0 NNW 4 7 1024.2 - 0.0 - - - - - - -
23/10:30am 19.2 WNW 2 4 1024.4 - 0.0 - - - - - - -
23/10:00am 18.1 NNW 3 4 1024.6 - 0.0 - - - - - - -
23/09:30am 17.4 WSW 2 3 1024.7 - 0.0 - - - - - - -
23/09:00am 16.9 WSW 3 4 1024.7 - 0.0 - - - - - - -
23/08:30am 16.7 WSW 3 4 1024.6 - 0.0 - - - - - - -
23/08:00am 16.5 W 2 3 1024.2 - 0.0 - - - - - - -
23/07:30am 16.3 WNW 2 3 1023.9 - 0.0 - - - - - - -
23/07:00am 15.8 W 2 2 1023.9 - 0.0 - - - - - - -
23/06:30am 15.6 WSW 1 2 1023.7 - 0.0 - - - - - - -
23/06:00am 15.4 WNW 1 2 1023.6 - 0.0 - - - - - - -
23/05:30am 15.6 NW 2 2 1023.4 - 0.0 - - - - - - -
23/05:00am 15.8 WNW 1 2 1023.2 - 0.0 - - - - - - -
23/04:30am 15.8 WNW 2 3 1023.0 - 0.0 - - - - - - -
23/04:00am 15.8 W 3 4 1023.0 - 0.0 - - - - - - -
23/03:30am 16.2 WNW 2 3 1023.0 - 0.0 - - - - - - -
23/03:00am 16.6 WNW 4 5 1023.2 - 0.0 - - - - - - -
23/02:30am 16.8 WNW 3 6 1023.4 - 0.0 - - - - - - -
23/02:00am 16.7 W 3 4 1023.5 - 0.0 - - - - - - -
23/01:30am 16.7 WNW 4 6 1023.5 - 0.0 - - - - - - -
23/01:00am 16.8 WNW 5 6 1023.6 - 0.0 - - - - - - -
23/12:30am 16.6 WNW 5 6 1023.6 - 0.0 - - - - - - -
23/12:00am 16.5 WNW 5 7 1023.7 - 0.0 - - - - - - -
 
Date/Time
EST
Temp
°C
Wind Pressure Rain since
9am
mm
Weather Cloud Vis
km
Sea
Height
m
Swell
Dir  Spd
kts
Gust
kts
hPa Trend Height
m
Period
s
Dir
22/11:30pm 16.5 NW 3 5 1023.7 - 0.0 - - - - - - -
22/11:00pm 16.6 NW 4 7 1023.9 - 0.0 - - - - - - -
22/10:30pm 16.8 NW 3 4 1023.8 - 0.0 - - - - - - -
22/10:00pm 17.0 WNW 4 5 1023.6 - 0.0 - - - - - - -
22/09:30pm 17.2 NW 4 6 1023.7 - 0.0 - - - - - - -
22/09:00pm 17.3 NW 4 5 1023.5 - 0.0 - - - - - - -
22/08:30pm 17.4 NW 4 5 1023.4 - 0.0 - - - - - - -
22/08:00pm 17.4 WNW 3 5 1023.2 - 0.0 - - - - - - -
22/07:30pm 17.4 WNW 4 6 1023.0 - 0.0 - - - - - - -
22/07:00pm 17.6 W 4 6 1022.8 - 0.0 - - - - - - -
22/06:30pm 17.8 W 5 7 1022.6 - 0.0 - - - - - - -
22/06:00pm 17.8 W 5 7 1022.3 - 0.0 - - - - - - -
22/05:30pm 18.5 W 6 11 1022.1 - 0.0 - - - - - - -
22/05:00pm 19.6 WSW 7 12 1021.9 - 0.0 - - - - - - -
22/04:30pm 20.8 W 7 12 1021.5 - 0.0 - - - - - - -
22/04:00pm 21.0 W 7 10 1021.4 - 0.0 - - - - - - -
22/03:30pm 21.4 W 8 12 1021.3 - 0.0 - - - - - - -
22/03:00pm 21.7 W 9 12 1021.3 - 0.0 - - - - - - -
22/02:30pm 22.5 WNW 8 11 1021.2 - 0.0 - - - - - - -
22/02:00pm 21.9 WNW 7 11 1021.2 - 0.0 - - - - - - -
22/01:30pm 21.6 WNW 7 9 1021.5 - 0.0 - - - - - - -
22/01:00pm 22.0 WNW 6 12 1021.8 - 0.0 - - - - - - -
22/12:30pm 20.1 NW 6 9 1022.3 - 0.0 - - - - - - -
22/12:00pm 19.2 WNW 6 10 1022.6 - 0.0 - - - - - - -
22/11:30am 20.1 NW 7 10 1022.9 - 0.0 - - - - - - -
22/11:00am 19.3 WNW 8 11 1023.2 - 0.0 - - - - - - -
22/10:30am 18.5 WNW 6 9 1023.3 - 0.0 - - - - - - -
22/10:00am 18.3 NW 8 12 1023.2 - 0.0 - - - - - - -
22/09:30am 17.9 NW 7 10 1023.3 - 0.0 - - - - - - -
22/09:00am 17.5 NW 5 8 1023.1 - 13.4 - - - - - - -
22/08:30am 17.4 NW 3 6 1023.0 - 13.4 - - - - - - -
22/08:00am 16.7 NNW 4 5 1022.8 - 13.4 - - - - - - -
22/07:30am 16.3 N 3 5 1022.4 - 13.4 - - - - - - -
22/07:00am 16.2 NNW 2 3 1022.1 - 13.4 - - - - - - -
22/06:30am 16.2 N 2 3 1021.9 - 13.4 - - - - - - -
22/06:00am 16.1 NNW 2 4 1021.6 - 13.4 Recent precip. - - - - - -
22/05:30am 16.4 NW 3 5 1021.5 - 12.2 - - - - - - -
22/05:00am 16.5 N 3 4 1021.2 - 11.0 - - - - - - -
22/04:30am 16.4 NNE 3 5 1021.0 - 11.0 - - - - - - -
22/04:00am 16.4 NNE 3 5 1020.9 - 11.0 - - - - - - -
22/03:30am 16.5 NNE 3 4 1021.0 - 11.0 - - - - - - -
22/03:00am 16.4 N 3 4 1021.0 - 10.8 Recent precip. - - - - - -
22/02:30am 16.5 N 2 3 1021.1 - 10.8 - - - - - - -
22/02:00am 16.6 NNW 3 4 1021.2 - 10.6 - - - - - - -
22/01:30am 16.6 NW 1 3 1021.2 - 9.6 - - - - - - -
22/01:00am 16.8 WNW 5 7 1021.2 - 7.4 - - - - - - -
22/12:30am 17.2 NNE 5 6 1020.7 - 4.6 - - - - - - -
22/12:00am 17.1 N 3 5 1021.0 - 4.6 - - - - - - -
 
Date/Time
EST
Temp
°C
Wind Pressure Rain since
9am
mm
Weather Cloud Vis
km
Sea
Height
m
Swell
Dir  Spd
kts
Gust
kts
hPa Trend Height
m
Period
s
Dir
21/11:30pm 17.2 NE 4 5 1020.9 - 4.6 - - - - - - -
21/11:00pm 17.4 NNE 4 5 1021.0 - 4.6 - - - - - - -
21/10:30pm 17.5 NE 2 3 1021.1 - 4.6 - - - - - - -
21/10:00pm 17.8 NNE 3 5 1020.9 - 4.6 - - - - - - -
21/09:30pm 17.8 N 5 7 1020.7 - 4.6 - - - - - - -
21/09:00pm 17.6 NNE 3 4 1020.7 - 4.6 - - - - - - -
21/08:30pm 17.9 N 3 4 1020.5 - 4.6 - - - - - - -
21/08:00pm 18.1 NNE 4 7 1020.2 - 4.6 - - - - - - -
21/07:30pm 18.5 N 7 10 1019.9 - 4.6 - - - - - - -
21/07:00pm 18.2 NNE 3 5 1019.8 - 4.6 - - - - - - -
21/06:30pm 18.2 NE 3 4 1019.6 - 4.6 - - - - - - -
21/06:00pm 18.1 NNE 4 6 1019.3 - 4.6 - - - - - - -
21/05:30pm 18.1 NNE 6 9 1019.2 - 4.6 - - - - - - -
21/05:00pm 18.4 NNE 8 12 1018.8 - 4.6 - - - - - - -
21/04:30pm 18.4 NNE 8 11 1018.8 - 4.6 - - - - - - -
21/04:00pm 18.9 NE 7 12 1018.5 - 4.6 - - - - - - -
21/03:30pm 19.5 NE 6 11 1018.3 - 4.6 - - - - - - -
21/03:00pm 20.3 NE 4 8 1018.2 - 4.6 - - - - - - -
21/02:30pm 19.6 ENE 5 11 1018.3 - 4.6 - - - - - - -
21/02:00pm 19.6 NE 6 10 1018.3 - 4.6 - - - - - - -
21/01:30pm 19.8 NNE 9 14 1018.2 - 0.0 - - - - - - -
21/01:00pm 20.0 NNE 10 16 1018.3 - 0.0 - - - - - - -
21/12:30pm 20.6 NW 4 7 1018.6 - 0.0 - - - - - - -
21/12:00pm 19.9 NNE 6 9 1019.0 - 0.0 - - - - - - -
21/11:30am 19.6 NNE 8 12 1019.2 - 0.0 - - - - - - -
21/11:00am 18.8 NE 8 14 1019.1 - 0.0 - - - - - - -
21/10:30am 18.0 NE 8 13 1019.2 - 0.0 - - - - - - -
21/10:00am 17.8 NE 9 15 1019.4 - 0.0 - - - - - - -
21/09:30am 17.4 NE 11 16 1019.7 - 0.0 - - - - - - -
21/09:00am 16.8 ENE 12 21 1019.7 - 13.2 - - - - - - -
21/08:30am 16.6 ENE 11 18 1019.7 - 13.2 - - - - - - -
21/08:00am 16.2 ENE 8 15 1019.8 - 13.2 - - - - - - -
21/07:30am 16.2 E 10 18 1019.5 - 13.0 - - - - - - -
21/07:00am 16.1 E 8 11 1019.6 - 12.2 - - - - - - -
21/06:30am 16.4 ENE 6 11 1019.9 - 9.0 - - - - - - -
21/06:00am 16.4 ENE 7 13 1019.9 - 7.8 Rain - - - - - -
21/05:30am 16.6 ENE 7 10 1020.1 - 6.0 - - - - - - -
21/05:00am 16.7 ENE 5 8 1020.2 - 4.4 - - - - - - -
21/04:30am 16.4 ENE 4 7 1020.2 - 3.6 - - - - - - -
21/04:00am 16.2 ESE 3 5 1020.3 - 3.0 - - - - - - -
21/03:30am 16.4 SE 3 4 1020.4 - 2.4 - - - - - - -
21/03:00am 16.3 SE 3 4 1020.3 - 2.0 Rain - - - - - -
21/02:30am 16.6 SE 2 3 1020.7 - 1.6 - - - - - - -
21/02:00am 16.8 SSE 1 2 1021.1 - 0.8 - - - - - - -
21/01:30am 17.0 CALM 0 0 1021.3 - 0.6 - - - - - - -
21/01:00am 17.2 WSW 1 2 1021.4 - 0.0 - - - - - - -
21/12:30am 17.5 W 3 4 1021.7 - 0.0 - - - - - - -
21/12:00am 17.5 S 3 5 1021.5 - 0.0 - - - - - - -
 
Date/Time
EST
Temp
°C
Wind Pressure Rain since
9am
mm
Weather Cloud Vis
km
Sea
Height
m
Swell
Dir  Spd
kts
Gust
kts
hPa Trend Height
m
Period
s
Dir
20/11:30pm 17.9 CALM 0 1 1021.7 - 0.0 - - - - - - -
20/11:00pm 18.5 CALM 0 2 1021.9 - 0.0 - - - - - - -
20/10:30pm 19.1 E 2 3 1021.8 - 0.0 - - - - - - -
20/10:00pm 18.6 N 1 2 1022.2 - 0.0 - - - - - - -
20/09:30pm 18.8 N 1 1 1022.4 - 0.0 - - - - - - -
20/09:00pm 18.7 CALM 0 0 1022.5 - 0.0 - - - - - - -
20/08:30pm 18.9 ENE 1 2 1022.5 - 0.0 - - - - - - -
20/08:00pm 20.2 ENE 1 2 1022.5 - 0.0 - - - - - - -
20/07:30pm 20.5 ENE 3 4 1022.5 - 0.0 - - - - - - -
20/07:00pm 20.8 ENE 2 5 1022.5 - 0.0 - - - - - - -
20/06:30pm 21.0 NE 3 4 1022.5 - 0.0 - - - - - - -

Other Formats:

Comma delimited format used in spreadsheet applications
http://www.bom.gov.au/fwo/IDV60701/IDV60701.94857.axf

JavaScript Object Notation format (JSON) in row-major order
http://www.bom.gov.au/fwo/IDV60701/IDV60701.94857.json